createdAt,value
2022-11-17T00:00:30.136Z,62.36
2022-11-17T00:02:57.046Z,61.86
2022-11-17T00:05:24.036Z,61.86
2022-11-17T00:07:51.023Z,61.80
2022-11-17T00:10:18.245Z,61.85
2022-11-17T00:13:03.835Z,61.33
2022-11-17T00:15:30.869Z,61.86
2022-11-17T00:18:19.378Z,61.37
2022-11-17T00:21:08.939Z,61.53
2022-11-17T00:23:50.386Z,61.61
2022-11-17T00:26:19.018Z,60.85
2022-11-17T00:28:46.152Z,61.64
2022-11-17T00:31:33.478Z,61.53
2022-11-17T00:34:06.739Z,61.96
2022-11-17T00:36:34.833Z,61.93
2022-11-17T00:39:02.025Z,61.72
2022-11-17T00:41:29.008Z,61.93
2022-11-17T00:43:55.971Z,62.29
2022-11-17T00:46:23.022Z,61.85
2022-11-17T00:48:50.172Z,62.76
2022-11-17T00:51:17.388Z,62.54
2022-11-17T00:53:44.347Z,61.94
2022-11-17T00:56:11.333Z,62.83
2022-11-17T00:58:38.502Z,62.92
2022-11-17T01:01:05.907Z,62.11
2022-11-17T01:03:34.953Z,62.42
2022-11-17T01:06:17.345Z,62.15
2022-11-17T01:08:44.910Z,62.17
2022-11-17T01:11:16.552Z,61.59
2022-11-17T01:13:44.447Z,61.38
2022-11-17T01:16:19.016Z,62.08
2022-11-17T01:18:47.550Z,61.49
2022-11-17T01:21:23.250Z,62.14
2022-11-17T01:23:52.990Z,61.75
2022-11-17T01:26:23.850Z,62.07
2022-11-17T01:28:51.893Z,62.18
2022-11-17T01:31:25.047Z,61.75
2022-11-17T01:33:52.385Z,61.82
2022-11-17T01:36:22.621Z,61.47
2022-11-17T01:38:50.177Z,61.70
2022-11-17T01:41:23.300Z,61.27
2022-11-17T01:43:55.756Z,61.12
2022-11-17T01:46:34.393Z,61.09
2022-11-17T01:49:11.488Z,61.35
2022-11-17T01:51:40.535Z,61.03
2022-11-17T01:54:10.684Z,60.49
2022-11-17T01:56:42.164Z,60.45
2022-11-17T01:59:19.923Z,60.73
2022-11-17T02:01:57.293Z,61.00
2022-11-17T02:04:38.290Z,61.76
2022-11-17T02:07:23.313Z,61.85
2022-11-17T02:09:51.992Z,61.37
2022-11-17T02:12:20.666Z,61.77
2022-11-17T02:14:50.733Z,61.64
2022-11-17T02:17:19.535Z,62.23
2022-11-17T02:20:01.634Z,62.80
2022-11-17T02:22:55.315Z,61.93
2022-11-17T02:25:44.850Z,62.57
2022-11-17T02:28:17.709Z,62.21
2022-11-17T02:30:44.588Z,61.79
2022-11-17T02:33:25.577Z,62.16
2022-11-17T02:36:07.200Z,62.05
2022-11-17T02:38:58.403Z,62.05
2022-11-17T02:41:32.632Z,62.70
2022-11-17T02:44:05.353Z,62.29
2022-11-17T02:46:43.820Z,62.66
2022-11-17T02:49:33.110Z,62.53
2022-11-17T02:52:01.194Z,62.73
2022-11-17T02:54:30.673Z,63.22
2022-11-17T02:56:57.743Z,63.03
2022-11-17T02:59:41.302Z,62.54
2022-11-17T03:02:27.689Z,63.30
2022-11-17T03:05:03.639Z,62.90
2022-11-17T03:07:33.204Z,63.33
2022-11-17T03:10:20.831Z,63.36
2022-11-17T03:12:56.042Z,63.49
2022-11-17T03:15:36.646Z,62.87
2022-11-17T03:18:21.417Z,63.70
2022-11-17T03:21:17.127Z,63.48
2022-11-17T03:24:09.441Z,65.11
2022-11-17T03:26:43.180Z,63.44
2022-11-17T03:29:15.112Z,64.18
2022-11-17T03:31:45.657Z,65.06
2022-11-17T03:34:16.773Z,65.20
2022-11-17T03:36:48.627Z,65.65
2022-11-17T03:39:51.095Z,66.13
2022-11-17T03:42:28.309Z,65.83
2022-11-17T03:45:01.746Z,65.64
2022-11-17T03:47:33.745Z,65.96
2022-11-17T03:50:04.271Z,67.29
2022-11-17T03:52:32.254Z,66.76
2022-11-17T03:54:59.387Z,66.47
2022-11-17T03:57:50.272Z,67.54
2022-11-17T04:00:18.940Z,66.07
2022-11-17T04:02:53.732Z,66.04
2022-11-17T04:05:20.795Z,66.74
2022-11-17T04:07:49.116Z,66.35
2022-11-17T04:10:18.565Z,66.27
2022-11-17T04:13:04.937Z,67.48
2022-11-17T04:15:50.686Z,67.47
2022-11-17T04:18:17.665Z,66.38
2022-11-17T04:20:45.471Z,67.26
2022-11-17T04:23:15.248Z,67.67
2022-11-17T04:26:03.614Z,67.71
2022-11-17T04:28:38.117Z,67.75
2022-11-17T04:31:07.927Z,68.06
2022-11-17T04:33:36.539Z,67.07
2022-11-17T04:36:04.833Z,67.94
2022-11-17T04:38:31.842Z,67.07
2022-11-17T04:41:22.769Z,67.84
2022-11-17T04:43:50.052Z,67.27
2022-11-17T04:46:17.988Z,66.93
2022-11-17T04:48:45.725Z,67.06
2022-11-17T04:51:12.705Z,66.90
2022-11-17T04:53:39.686Z,67.55
2022-11-17T04:56:06.966Z,67.56
2022-11-17T04:58:33.965Z,67.08
2022-11-17T05:01:12.504Z,66.74
2022-11-17T05:03:45.477Z,67.19
2022-11-17T05:06:32.149Z,66.67
2022-11-17T05:09:01.140Z,66.51
2022-11-17T05:11:48.277Z,67.15
2022-11-17T05:14:17.364Z,66.87
2022-11-17T05:17:08.640Z,67.42
2022-11-17T05:19:39.673Z,66.05
2022-11-17T05:22:25.785Z,65.67
2022-11-17T05:24:53.424Z,66.73
2022-11-17T05:27:21.871Z,66.98
2022-11-17T05:29:49.004Z,66.30
2022-11-17T05:32:15.909Z,67.73
2022-11-17T05:34:42.985Z,67.22
2022-11-17T05:37:10.261Z,67.48
2022-11-17T05:39:37.270Z,66.82
2022-11-17T05:42:04.663Z,66.82
2022-11-17T05:44:31.900Z,67.10
2022-11-17T05:46:58.810Z,67.37
2022-11-17T05:49:25.728Z,67.21
2022-11-17T05:51:53.225Z,66.85
2022-11-17T05:54:20.766Z,67.97
2022-11-17T05:56:55.719Z,68.61
2022-11-17T05:59:28.065Z,68.79
2022-11-17T06:02:17.238Z,67.96
2022-11-17T06:04:44.344Z,68.12
2022-11-17T06:07:11.524Z,67.88
2022-11-17T06:09:41.614Z,67.42
2022-11-17T06:12:08.942Z,67.62
2022-11-17T06:14:37.692Z,68.69
2022-11-17T06:17:21.624Z,68.63
2022-11-17T06:19:55.959Z,67.29
2022-11-17T06:22:24.532Z,68.27
2022-11-17T06:24:51.451Z,67.47
2022-11-17T06:27:18.462Z,67.38
2022-11-17T06:29:47.016Z,67.91
2022-11-17T06:32:15.080Z,67.45
2022-11-17T06:34:44.440Z,67.17
2022-11-17T06:37:11.660Z,66.95
2022-11-17T06:39:38.759Z,66.88
2022-11-17T06:42:05.754Z,67.28
2022-11-17T06:44:32.645Z,66.96
2022-11-17T06:46:59.524Z,66.48
2022-11-17T06:49:26.400Z,66.43
2022-11-17T06:51:53.299Z,65.89
2022-11-17T06:54:20.227Z,65.37
2022-11-17T06:56:49.819Z,65.67
2022-11-17T06:59:17.325Z,65.26
2022-11-17T07:01:44.245Z,65.10
2022-11-17T07:04:11.234Z,64.83
2022-11-17T07:06:39.033Z,64.76
2022-11-17T07:09:06.243Z,64.68
2022-11-17T07:11:36.413Z,65.19
2022-11-17T07:14:03.624Z,64.63
2022-11-17T07:16:31.828Z,64.36
2022-11-17T07:18:59.467Z,63.80
2022-11-17T07:21:26.556Z,64.09
2022-11-17T07:23:53.630Z,64.25
2022-11-17T07:26:20.645Z,64.32
2022-11-17T07:28:47.703Z,63.96
2022-11-17T07:31:14.924Z,63.61
2022-11-17T07:33:42.048Z,62.87
2022-11-17T07:36:11.909Z,62.54
2022-11-17T07:38:40.393Z,61.91
2022-11-17T07:41:09.898Z,61.07
2022-11-17T07:43:37.135Z,61.48
2022-11-17T07:46:09.336Z,59.38
2022-11-17T07:48:36.750Z,60.62
2022-11-17T07:51:04.816Z,60.13
2022-11-17T07:53:33.490Z,60.31
2022-11-17T07:56:06.297Z,60.29
2022-11-17T07:58:33.908Z,60.20
2022-11-17T08:01:06.049Z,60.27
2022-11-17T08:03:33.623Z,60.23
2022-11-17T08:06:05.735Z,60.52
2022-11-17T08:08:33.622Z,60.22
2022-11-17T08:11:09.308Z,60.17
2022-11-17T08:13:36.928Z,60.17
2022-11-17T08:16:04.395Z,60.57
2022-11-17T08:18:31.439Z,60.16
2022-11-17T08:21:07.884Z,59.45
2022-11-17T08:23:35.363Z,59.49
2022-11-17T08:26:03.644Z,60.82
2022-11-17T08:28:30.718Z,60.44
2022-11-17T08:31:00.291Z,59.78
2022-11-17T08:33:27.372Z,56.79
2022-11-17T08:35:58.363Z,56.50
2022-11-17T08:38:29.285Z,56.83
2022-11-17T08:41:02.843Z,55.24
2022-11-17T08:43:30.761Z,54.49
2022-11-17T08:45:57.773Z,53.96
2022-11-17T08:48:25.602Z,52.67
2022-11-17T08:50:52.766Z,52.12
2022-11-17T08:53:21.836Z,52.28
2022-11-17T08:55:49.075Z,53.03
2022-11-17T08:58:16.419Z,52.45
2022-11-17T09:00:45.450Z,52.79
2022-11-17T09:03:12.541Z,52.64
2022-11-17T09:05:45.357Z,51.88
2022-11-17T09:08:43.897Z,52.86
2022-11-17T09:11:08.564Z,53.60
2022-11-17T09:13:36.517Z,53.59
2022-11-17T09:16:11.541Z,53.54
2022-11-17T09:18:39.408Z,54.11
2022-11-17T09:21:10.801Z,55.24
2022-11-17T09:23:38.459Z,54.34
2022-11-17T09:26:08.396Z,54.89
2022-11-17T09:28:35.882Z,54.56
2022-11-17T09:31:13.868Z,54.58
2022-11-17T09:33:41.166Z,54.66
2022-11-17T09:36:09.309Z,54.88
2022-11-17T09:38:37.549Z,54.69
2022-11-17T09:41:26.804Z,54.58
2022-11-17T09:44:21.107Z,55.08
2022-11-17T09:47:23.143Z,55.24
2022-11-17T09:49:59.535Z,55.28
2022-11-17T09:52:59.178Z,54.76
2022-11-17T09:55:35.838Z,55.51
2022-11-17T09:58:34.925Z,55.08
2022-11-17T10:01:02.336Z,55.10
2022-11-17T10:03:38.839Z,55.82
2022-11-17T10:06:19.463Z,56.14
2022-11-17T10:09:00.738Z,56.50
2022-11-17T10:11:33.555Z,56.81
2022-11-17T10:14:10.817Z,56.85
2022-11-17T10:16:39.265Z,56.52
2022-11-17T10:19:38.262Z,55.32
2022-11-17T10:22:05.511Z,56.17
2022-11-17T10:24:51.224Z,56.55
2022-11-17T10:27:18.130Z,56.33
2022-11-17T10:30:01.620Z,55.89
2022-11-17T10:32:34.437Z,56.15
2022-11-17T10:35:17.889Z,56.25
2022-11-17T10:38:12.410Z,55.81
2022-11-17T10:40:39.278Z,55.28
2022-11-17T10:43:12.716Z,55.71
2022-11-17T10:45:55.964Z,55.81
2022-11-17T10:48:30.403Z,55.79
2022-11-17T10:51:00.143Z,55.68
2022-11-17T10:53:27.023Z,55.72
2022-11-17T10:55:58.198Z,56.43
2022-11-17T10:58:28.170Z,56.40
2022-11-17T11:00:58.507Z,56.38
2022-11-17T11:03:30.349Z,56.85
2022-11-17T11:06:00.719Z,56.99
2022-11-17T11:08:34.644Z,57.14
2022-11-17T11:11:03.694Z,56.88
2022-11-17T11:13:42.618Z,58.00
2022-11-17T11:16:12.451Z,57.64
2022-11-17T11:18:39.633Z,58.15
2022-11-17T11:21:24.391Z,58.52
2022-11-17T11:23:55.631Z,58.94
2022-11-17T11:26:47.359Z,60.17
2022-11-17T11:29:44.494Z,60.21
2022-11-17T11:32:45.503Z,60.40
2022-11-17T11:35:31.268Z,59.91
2022-11-17T11:38:37.962Z,60.05
2022-11-17T11:41:32.304Z,58.97
2022-11-17T11:44:02.300Z,58.23
2022-11-17T11:46:57.010Z,57.50
2022-11-17T11:49:50.916Z,58.44
2022-11-17T11:52:24.558Z,58.26
2022-11-17T11:54:56.600Z,57.20
2022-11-17T11:57:35.652Z,57.18
2022-11-17T12:00:05.110Z,57.65
2022-11-17T12:03:03.152Z,57.46
2022-11-17T12:05:38.176Z,58.08
2022-11-17T12:08:23.610Z,58.16
2022-11-17T12:10:59.789Z,57.69
2022-11-17T12:13:27.472Z,57.09
2022-11-17T12:16:18.263Z,57.35
2022-11-17T12:18:45.256Z,57.24
2022-11-17T12:21:13.625Z,57.74
2022-11-17T12:23:56.321Z,58.03
2022-11-17T12:26:29.989Z,58.19
2022-11-17T12:29:21.641Z,58.61
2022-11-17T12:31:50.816Z,58.88
2022-11-17T12:34:38.430Z,59.56
2022-11-17T12:37:06.437Z,59.63
2022-11-17T12:39:54.503Z,60.54
2022-11-17T12:42:21.589Z,60.26
2022-11-17T12:44:55.950Z,60.20
2022-11-17T12:47:26.248Z,59.99
2022-11-17T12:50:14.902Z,59.86
2022-11-17T12:52:50.498Z,58.61
2022-11-17T12:55:29.325Z,59.36
2022-11-17T12:58:06.222Z,59.07
2022-11-17T13:00:48.310Z,58.62
2022-11-17T13:03:17.731Z,58.31
2022-11-17T13:05:45.404Z,59.18
2022-11-17T13:08:22.022Z,59.09
2022-11-17T13:10:50.985Z,58.64
2022-11-17T13:13:24.600Z,58.40
2022-11-17T13:15:58.927Z,58.44
2022-11-17T13:18:38.578Z,58.20
2022-11-17T13:21:16.963Z,58.49
2022-11-17T13:23:45.078Z,58.18
2022-11-17T13:26:28.081Z,58.31
2022-11-17T13:29:15.692Z,58.92
2022-11-17T13:31:42.509Z,59.20
2022-11-17T13:34:12.808Z,59.38
2022-11-17T13:36:57.451Z,59.67
2022-11-17T13:39:27.922Z,59.79
2022-11-17T13:41:56.910Z,59.57
2022-11-17T13:44:27.189Z,60.33
2022-11-17T13:46:54.174Z,60.47
2022-11-17T13:49:34.919Z,60.68
2022-11-17T13:52:04.888Z,59.82
2022-11-17T13:54:32.613Z,59.71
2022-11-17T13:57:08.000Z,60.42
2022-11-17T13:59:38.666Z,60.46
2022-11-17T14:02:20.503Z,60.99
2022-11-17T14:05:16.869Z,61.35
2022-11-17T14:07:44.746Z,60.33
2022-11-17T14:10:31.652Z,60.71
2022-11-17T14:13:01.650Z,60.31
2022-11-17T14:15:29.716Z,60.21
2022-11-17T14:18:01.718Z,60.33
2022-11-17T14:20:34.466Z,60.98
2022-11-17T14:23:13.817Z,60.73
2022-11-17T14:25:46.305Z,61.05
2022-11-17T14:28:21.250Z,60.75
2022-11-17T14:30:53.140Z,60.71
2022-11-17T14:33:20.421Z,60.20
2022-11-17T14:35:56.269Z,60.80
2022-11-17T14:38:23.645Z,60.36
2022-11-17T14:40:52.323Z,59.95
2022-11-17T14:43:21.153Z,60.12
2022-11-17T14:45:49.415Z,60.01
2022-11-17T14:48:20.353Z,59.39
2022-11-17T14:50:48.570Z,60.02
2022-11-17T14:53:15.482Z,59.88
2022-11-17T14:55:42.401Z,59.80
2022-11-17T14:58:10.163Z,59.92
2022-11-17T15:00:37.717Z,59.55
2022-11-17T15:03:04.958Z,59.76
2022-11-17T15:05:32.329Z,59.58
2022-11-17T15:07:59.328Z,59.54
2022-11-17T15:10:26.305Z,59.57
2022-11-17T15:12:53.233Z,59.42
2022-11-17T15:15:20.179Z,59.91
2022-11-17T15:17:47.111Z,59.72
2022-11-17T15:20:14.153Z,59.74
2022-11-17T15:22:41.120Z,59.82
2022-11-17T15:25:09.307Z,60.29
2022-11-17T15:27:36.447Z,59.90
2022-11-17T15:30:04.670Z,59.67
2022-11-17T15:32:32.105Z,59.77
2022-11-17T15:34:59.076Z,59.82
2022-11-17T15:37:26.063Z,59.63
2022-11-17T15:39:53.810Z,59.81
2022-11-17T15:42:20.780Z,59.82
2022-11-17T15:44:47.788Z,59.71
2022-11-17T15:47:14.798Z,59.75
2022-11-17T15:49:41.923Z,59.72
2022-11-17T15:52:08.888Z,59.13
2022-11-17T15:54:36.056Z,59.98
2022-11-17T15:57:03.176Z,59.24
2022-11-17T15:59:30.155Z,59.36
2022-11-17T16:01:57.207Z,59.10
2022-11-17T16:04:24.364Z,59.01
2022-11-17T16:06:51.551Z,59.01
2022-11-17T16:09:18.738Z,58.63
2022-11-17T16:11:46.018Z,58.71
2022-11-17T16:14:15.057Z,59.34
2022-11-17T16:16:43.805Z,59.50
2022-11-17T16:19:10.798Z,59.36
2022-11-17T16:21:37.907Z,59.96
2022-11-17T16:24:05.510Z,59.44
2022-11-17T16:26:33.159Z,59.61
2022-11-17T16:29:02.193Z,59.90
2022-11-17T16:31:31.559Z,59.68
2022-11-17T16:34:00.969Z,59.58
2022-11-17T16:36:35.944Z,60.04
2022-11-17T16:39:05.694Z,59.82
2022-11-17T16:41:35.964Z,60.23
2022-11-17T16:44:07.874Z,60.83
2022-11-17T16:46:35.409Z,60.59
2022-11-17T16:49:07.395Z,60.05
2022-11-17T16:51:34.900Z,60.85
2022-11-17T16:54:04.530Z,61.32
2022-11-17T16:56:33.131Z,61.39
2022-11-17T16:59:01.722Z,61.61
2022-11-17T17:01:31.019Z,62.00
2022-11-17T17:04:01.282Z,62.04
2022-11-17T17:06:28.776Z,62.32
2022-11-17T17:09:04.925Z,62.90
2022-11-17T17:11:33.780Z,62.48
2022-11-17T17:14:03.249Z,62.33
2022-11-17T17:16:32.552Z,63.44
2022-11-17T17:19:01.825Z,63.37
2022-11-17T17:21:29.804Z,63.39
2022-11-17T17:23:57.243Z,63.67
2022-11-17T17:26:26.256Z,64.01
2022-11-17T17:28:56.029Z,63.39
2022-11-17T17:31:25.133Z,63.82
2022-11-17T17:33:54.499Z,63.83
2022-11-17T17:36:23.869Z,63.79
2022-11-17T17:38:55.455Z,63.33
2022-11-17T17:41:26.215Z,63.40
2022-11-17T17:43:58.449Z,63.91
2022-11-17T17:46:26.096Z,63.86
2022-11-17T17:48:53.045Z,63.66
2022-11-17T17:51:23.974Z,63.45
2022-11-17T17:53:51.585Z,64.07
2022-11-17T17:56:20.124Z,63.87
2022-11-17T17:58:48.996Z,63.76
2022-11-17T18:01:24.332Z,63.83
2022-11-17T18:03:53.941Z,63.60
2022-11-17T18:06:22.463Z,64.12
2022-11-17T18:08:49.831Z,64.03
2022-11-17T18:11:19.592Z,63.65
2022-11-17T18:13:50.998Z,63.60
2022-11-17T18:16:30.117Z,63.53
2022-11-17T18:18:59.788Z,64.00
2022-11-17T18:21:28.711Z,64.16
2022-11-17T18:23:57.274Z,63.90
2022-11-17T18:26:27.013Z,63.96
2022-11-17T18:29:06.051Z,63.61
2022-11-17T18:31:34.975Z,63.87
2022-11-17T18:34:07.634Z,64.07
2022-11-17T18:36:35.810Z,64.36
2022-11-17T18:39:03.714Z,64.60
2022-11-17T18:41:34.027Z,64.55
2022-11-17T18:44:01.724Z,64.16
2022-11-17T18:46:31.258Z,64.49
2022-11-17T18:48:59.358Z,64.60
2022-11-17T18:51:30.341Z,64.43
2022-11-17T18:54:00.420Z,63.56
2022-11-17T18:56:36.362Z,63.96
2022-11-17T18:59:11.177Z,64.50
2022-11-17T19:01:43.246Z,64.57
2022-11-17T19:04:12.729Z,63.91
2022-11-17T19:06:39.706Z,63.58
2022-11-17T19:09:06.913Z,63.89
2022-11-17T19:11:34.747Z,64.64
2022-11-17T19:14:02.577Z,64.87
2022-11-17T19:16:30.221Z,64.44
2022-11-17T19:18:57.713Z,64.70
2022-11-17T19:21:28.820Z,64.55
2022-11-17T19:23:58.652Z,64.44
2022-11-17T19:26:28.134Z,64.92
2022-11-17T19:28:57.201Z,65.24
2022-11-17T19:31:24.834Z,65.38
2022-11-17T19:33:51.775Z,65.75
2022-11-17T19:36:22.261Z,65.33
2022-11-17T19:38:51.108Z,65.24
2022-11-17T19:41:20.720Z,65.54
2022-11-17T19:43:48.181Z,65.27
2022-11-17T19:46:16.957Z,65.16
2022-11-17T19:48:44.996Z,65.18
2022-11-17T19:51:33.408Z,64.96
2022-11-17T19:54:06.007Z,64.96
2022-11-17T19:56:33.218Z,64.83
2022-11-17T19:59:00.201Z,64.87
2022-11-17T20:01:29.563Z,64.61
2022-11-17T20:03:58.217Z,64.94
2022-11-17T20:06:27.956Z,64.86
2022-11-17T20:08:57.547Z,64.58
2022-11-17T20:11:27.298Z,64.20
2022-11-17T20:13:55.474Z,64.42
2022-11-17T20:16:25.166Z,64.65
2022-11-17T20:18:57.685Z,64.66
2022-11-17T20:21:25.880Z,64.59
2022-11-17T20:23:53.153Z,64.16
2022-11-17T20:26:32.087Z,64.33
2022-11-17T20:29:00.024Z,64.65
2022-11-17T20:31:32.657Z,64.77
2022-11-17T20:34:02.132Z,64.17
2022-11-17T20:36:31.247Z,64.27
2022-11-17T20:39:02.999Z,64.06
2022-11-17T20:41:30.436Z,64.20
2022-11-17T20:43:59.660Z,64.17
2022-11-17T20:46:28.726Z,63.89
2022-11-17T20:48:55.872Z,63.95
2022-11-17T20:51:24.955Z,64.17
2022-11-17T20:53:52.124Z,63.52
2022-11-17T20:56:19.523Z,63.96
2022-11-17T20:58:46.467Z,63.93
2022-11-17T21:01:19.053Z,63.80
2022-11-17T21:03:46.559Z,64.17
2022-11-17T21:06:13.874Z,64.08
2022-11-17T21:08:42.673Z,64.16
2022-11-17T21:11:32.852Z,63.92
2022-11-17T21:13:59.920Z,64.35
2022-11-17T21:16:26.959Z,63.94
2022-11-17T21:18:54.073Z,64.19
2022-11-17T21:21:21.047Z,64.09
2022-11-17T21:23:48.123Z,63.81
2022-11-17T21:26:19.209Z,63.92
2022-11-17T21:28:47.270Z,64.01
2022-11-17T21:31:20.274Z,63.69
2022-11-17T21:33:47.446Z,63.24
2022-11-17T21:36:16.463Z,63.66
2022-11-17T21:38:45.094Z,63.67
2022-11-17T21:41:20.571Z,63.92
2022-11-17T21:43:49.480Z,63.71
2022-11-17T21:46:20.997Z,63.88
2022-11-17T21:48:48.809Z,64.31
2022-11-17T21:51:22.855Z,64.18
2022-11-17T21:53:58.301Z,64.06
2022-11-17T21:56:27.071Z,64.64
2022-11-17T21:59:10.799Z,64.41
2022-11-17T22:01:38.225Z,64.25
2022-11-17T22:04:05.261Z,64.24
2022-11-17T22:06:32.276Z,64.10
2022-11-17T22:08:59.680Z,64.32
2022-11-17T22:11:38.152Z,64.70
2022-11-17T22:14:12.269Z,64.65
2022-11-17T22:16:42.608Z,64.81
2022-11-17T22:19:10.740Z,64.87
2022-11-17T22:21:38.924Z,64.90
2022-11-17T22:24:08.230Z,64.90
2022-11-17T22:26:38.633Z,64.48
2022-11-17T22:29:07.976Z,64.73
2022-11-17T22:31:34.940Z,64.43
2022-11-17T22:34:01.891Z,64.31
2022-11-17T22:36:28.888Z,65.10
2022-11-17T22:38:56.037Z,65.12
2022-11-17T22:41:23.700Z,64.70
2022-11-17T22:43:51.975Z,64.84
2022-11-17T22:46:20.312Z,64.91
2022-11-17T22:48:48.023Z,65.01
2022-11-17T22:51:35.657Z,65.29
2022-11-17T22:54:02.507Z,66.04
2022-11-17T22:56:29.541Z,66.13
2022-11-17T22:58:59.705Z,65.38
2022-11-17T23:01:27.127Z,64.82
2022-11-17T23:03:54.143Z,65.47
2022-11-17T23:06:22.840Z,65.24
2022-11-17T23:08:50.704Z,65.12
2022-11-17T23:14:06.325Z,64.70
2022-11-17T23:16:33.365Z,65.26
2022-11-17T23:19:00.333Z,65.15
2022-11-17T23:21:27.319Z,65.04
2022-11-17T23:23:54.334Z,65.78
2022-11-17T23:26:21.491Z,65.61
2022-11-17T23:28:48.995Z,65.58
2022-11-17T23:31:17.254Z,65.50
2022-11-17T23:33:46.216Z,65.28
2022-11-17T23:36:18.096Z,65.52
2022-11-17T23:38:45.597Z,64.98
2022-11-17T23:41:15.531Z,65.43
2022-11-17T23:43:43.130Z,65.48
2022-11-17T23:46:15.181Z,64.82
2022-11-17T23:48:43.084Z,65.02
2022-11-17T23:51:14.354Z,64.58
2022-11-17T23:53:41.459Z,64.69
2022-11-17T23:56:09.352Z,64.59
2022-11-17T23:58:37.125Z,64.23
